createdAt,value
2022-10-03T00:00:56.789Z,58.55
2022-10-03T00:03:23.408Z,60.35
2022-10-03T00:05:49.655Z,55.90
2022-10-03T00:08:16.186Z,58.75
2022-10-03T00:10:42.454Z,54.97
2022-10-03T00:13:08.706Z,54.58
2022-10-03T00:15:35.005Z,61.05
2022-10-03T00:18:02.206Z,82.68
2022-10-03T00:20:28.469Z,58.47
2022-10-03T00:22:54.719Z,54.67
2022-10-03T00:25:20.978Z,52.78
2022-10-03T00:27:47.231Z,57.33
2022-10-03T00:30:13.494Z,70.72
2022-10-03T00:32:41.136Z,103.60
2022-10-03T00:35:08.007Z,119.90
2022-10-03T00:37:35.084Z,140.43
2022-10-03T00:40:01.275Z,122.10
2022-10-03T00:42:27.529Z,77.93
2022-10-03T00:44:53.903Z,74.25
2022-10-03T00:47:20.175Z,63.75
2022-10-03T00:49:46.421Z,48.95
2022-10-03T00:52:12.677Z,77.07
2022-10-03T00:54:38.973Z,107.97
2022-10-03T00:57:05.250Z,118.07
2022-10-03T00:59:31.496Z,113.78
2022-10-03T01:01:57.844Z,118.43
2022-10-03T01:04:24.173Z,109.18
2022-10-03T01:06:50.484Z,110.53
2022-10-03T01:09:16.738Z,116.45
2022-10-03T01:11:43.236Z,111.20
2022-10-03T01:14:09.565Z,108.05
2022-10-03T01:16:37.787Z,115.10
2022-10-03T01:19:04.044Z,112.32
2022-10-03T01:21:30.311Z,125.60
2022-10-03T01:23:56.571Z,115.25
2022-10-03T01:26:22.830Z,108.22
2022-10-03T01:29:07.965Z,96.97
2022-10-03T01:31:34.399Z,104.82
2022-10-03T01:34:00.728Z,109.93
2022-10-03T01:36:27.012Z,114.47
2022-10-03T01:38:53.643Z,100.20
2022-10-03T01:41:20.434Z,90.60
2022-10-03T01:43:46.691Z,88.28
2022-10-03T01:46:13.029Z,86.47
2022-10-03T01:48:39.380Z,101.03
2022-10-03T01:51:05.622Z,110.85
2022-10-03T01:53:31.888Z,118.20
2022-10-03T01:55:58.143Z,129.38
2022-10-03T01:58:26.020Z,132.32
2022-10-03T02:00:52.316Z,151.57
2022-10-03T02:03:18.595Z,134.63
2022-10-03T02:05:44.852Z,130.55
2022-10-03T02:08:17.097Z,157.10
2022-10-03T02:10:43.343Z,146.02
2022-10-03T02:13:09.636Z,131.27
2022-10-03T02:15:35.897Z,143.73
2022-10-03T02:18:02.282Z,121.22
2022-10-03T02:20:28.699Z,84.03
2022-10-03T02:22:55.005Z,88.70
2022-10-03T02:25:21.255Z,93.93
2022-10-03T02:27:47.532Z,131.32
2022-10-03T02:30:13.792Z,128.25
2022-10-03T02:32:40.506Z,139.73
2022-10-03T02:35:07.800Z,85.60
2022-10-03T02:37:34.046Z,81.22
2022-10-03T02:40:00.322Z,82.68
2022-10-03T02:42:26.611Z,102.47
2022-10-03T02:44:52.887Z,90.57
2022-10-03T02:47:19.186Z,63.75
2022-10-03T02:49:46.625Z,57.50
2022-10-03T02:52:12.896Z,61.75
2022-10-03T02:54:39.152Z,69.53
2022-10-03T02:57:05.401Z,71.97
2022-10-03T02:59:31.660Z,72.38
2022-10-03T03:01:57.930Z,78.65
2022-10-03T03:04:24.220Z,86.35
2022-10-03T03:06:52.654Z,87.30
2022-10-03T03:09:18.929Z,82.80
2022-10-03T03:11:47.313Z,76.50
2022-10-03T03:14:13.567Z,76.55
2022-10-03T03:16:40.122Z,89.35
2022-10-03T03:19:06.443Z,101.55
2022-10-03T03:21:32.692Z,89.88
2022-10-03T03:23:59.065Z,78.07
2022-10-03T03:26:28.035Z,88.05
2022-10-03T03:28:55.791Z,82.03
2022-10-03T03:31:22.267Z,93.25
2022-10-03T03:33:51.354Z,86.20
2022-10-03T03:36:17.602Z,79.15
2022-10-03T03:38:43.850Z,101.85
2022-10-03T03:41:10.095Z,93.65
2022-10-03T03:43:36.356Z,79.15
2022-10-03T03:46:02.672Z,78.63
2022-10-03T03:48:28.966Z,79.07
2022-10-03T03:50:57.092Z,87.82
2022-10-03T03:55:49.529Z,75.40
2022-10-03T03:58:15.849Z,64.10
2022-10-03T04:00:43.042Z,79.78
2022-10-03T04:03:09.343Z,80.65
2022-10-03T04:05:35.648Z,86.63
2022-10-03T04:08:01.922Z,103.18
2022-10-03T04:10:28.173Z,101.90
2022-10-03T04:12:55.868Z,62.63
2022-10-03T04:15:22.120Z,69.57
2022-10-03T04:18:07.148Z,70.25
2022-10-03T04:20:33.408Z,66.20
2022-10-03T04:23:00.411Z,68.40
2022-10-03T04:25:26.710Z,69.55
2022-10-03T04:27:53.021Z,61.92
2022-10-03T04:30:19.896Z,57.40
2022-10-03T04:32:46.231Z,62.90
2022-10-03T04:35:12.487Z,65.63
2022-10-03T04:37:38.756Z,67.20
2022-10-03T04:40:05.008Z,62.00
2022-10-03T04:42:31.260Z,55.78
2022-10-03T04:44:57.599Z,61.05
2022-10-03T04:47:23.842Z,61.40
2022-10-03T04:49:52.962Z,71.18
2022-10-03T04:52:19.589Z,83.35
2022-10-03T04:54:48.190Z,81.13
2022-10-03T04:57:14.466Z,90.80
2022-10-03T04:59:40.705Z,95.05
2022-10-03T05:02:07.018Z,78.68
2022-10-03T05:04:33.311Z,80.88
2022-10-03T05:07:00.547Z,74.60
2022-10-03T05:09:26.811Z,94.75
2022-10-03T05:11:53.807Z,94.95
2022-10-03T05:14:20.188Z,95.03
2022-10-03T05:16:46.504Z,76.22
2022-10-03T05:19:13.572Z,77.50
2022-10-03T05:21:40.269Z,75.97
2022-10-03T05:24:06.729Z,79.22
2022-10-03T05:26:44.650Z,71.40
2022-10-03T05:29:11.899Z,108.15
2022-10-03T05:31:38.593Z,62.00
2022-10-03T05:34:05.099Z,64.30
2022-10-03T05:36:31.408Z,64.65
2022-10-03T05:38:57.663Z,95.28
2022-10-03T05:41:26.116Z,88.30
2022-10-03T05:43:54.368Z,70.10
2022-10-03T05:46:20.690Z,67.40
2022-10-03T05:48:46.980Z,70.32
2022-10-03T05:51:13.330Z,65.80
2022-10-03T05:53:39.736Z,84.20
2022-10-03T05:56:06.052Z,89.40
2022-10-03T05:58:32.349Z,84.85
2022-10-03T06:00:58.726Z,80.40
2022-10-03T06:03:25.003Z,75.40
2022-10-03T06:05:51.255Z,80.45
2022-10-03T06:08:18.002Z,72.80
2022-10-03T06:10:44.537Z,65.88
2022-10-03T06:13:11.290Z,78.35
2022-10-03T06:15:38.346Z,92.28
2022-10-03T06:18:04.604Z,66.60
2022-10-03T06:20:30.864Z,70.28
2022-10-03T06:23:00.405Z,80.05
2022-10-03T06:25:28.712Z,72.70
2022-10-03T06:27:55.003Z,72.25
2022-10-03T06:30:22.006Z,78.05
2022-10-03T06:32:48.385Z,95.95
2022-10-03T06:35:15.678Z,85.57
2022-10-03T06:37:41.940Z,87.32
2022-10-03T06:40:10.206Z,84.10
2022-10-03T06:42:37.466Z,82.63
2022-10-03T06:45:03.729Z,78.25
2022-10-03T06:47:31.382Z,79.07
2022-10-03T06:49:57.732Z,77.53
2022-10-03T06:52:24.548Z,80.22
2022-10-03T06:54:50.808Z,75.85
2022-10-03T06:57:17.059Z,81.25
2022-10-03T06:59:43.312Z,104.97
2022-10-03T07:02:10.054Z,96.25
2022-10-03T07:04:36.346Z,94.03
2022-10-03T07:07:05.168Z,92.43
2022-10-03T07:09:31.428Z,112.03
2022-10-03T07:11:57.703Z,91.60
2022-10-03T07:14:25.034Z,69.15
2022-10-03T07:16:51.316Z,64.93
2022-10-03T07:19:17.710Z,72.07
2022-10-03T07:21:43.954Z,76.95
2022-10-03T07:24:10.358Z,65.63
2022-10-03T07:26:36.634Z,69.95
2022-10-03T07:29:02.901Z,82.30
2022-10-03T07:31:29.235Z,97.28
2022-10-03T07:33:55.581Z,112.95
2022-10-03T07:36:40.577Z,112.10
2022-10-03T07:39:07.103Z,76.00
2022-10-03T07:41:33.844Z,84.32
2022-10-03T07:44:00.112Z,85.22
2022-10-03T07:46:26.396Z,98.45
2022-10-03T07:48:52.678Z,129.35
2022-10-03T07:51:18.955Z,111.47
2022-10-03T07:53:45.212Z,59.15
2022-10-03T07:56:11.474Z,64.70
2022-10-03T07:58:37.877Z,67.03
2022-10-03T08:01:04.887Z,60.25
2022-10-03T08:03:32.229Z,55.03
2022-10-03T08:05:58.540Z,59.58
2022-10-03T08:08:24.819Z,60.35
2022-10-03T08:10:51.078Z,70.60
2022-10-03T08:13:17.335Z,72.85
2022-10-03T08:15:43.710Z,68.85
2022-10-03T08:18:10.026Z,69.53
2022-10-03T08:20:36.283Z,67.43
2022-10-03T08:23:02.670Z,54.60
2022-10-03T08:25:28.932Z,48.05
2022-10-03T08:27:55.271Z,57.83
2022-10-03T08:30:21.926Z,60.28
2022-10-03T08:32:48.937Z,65.43
2022-10-03T08:35:15.567Z,61.83
2022-10-03T08:37:41.859Z,61.20
2022-10-03T08:40:09.482Z,66.10
2022-10-03T08:42:35.756Z,85.30
2022-10-03T08:45:02.081Z,85.53
2022-10-03T08:47:28.345Z,122.78
2022-10-03T08:49:54.620Z,104.70
2022-10-03T08:52:21.410Z,142.40
2022-10-03T08:54:47.697Z,108.10
2022-10-03T08:57:13.948Z,227.93
2022-10-03T08:59:40.266Z,100.18
2022-10-03T09:02:06.614Z,188.65
2022-10-03T09:04:32.950Z,65.55
2022-10-03T09:07:16.565Z,136.18
2022-10-03T09:09:44.105Z,50.60
2022-10-03T09:12:10.367Z,93.65
2022-10-03T09:14:36.611Z,60.67
2022-10-03T09:17:02.872Z,68.40
2022-10-03T09:19:29.380Z,78.78
2022-10-03T09:21:55.645Z,55.78
2022-10-03T09:24:21.899Z,73.45
2022-10-03T09:26:48.202Z,59.45
2022-10-03T09:29:14.845Z,50.08
2022-10-03T09:31:42.599Z,66.57
2022-10-03T09:36:35.639Z,96.80
2022-10-03T09:39:01.899Z,63.67
2022-10-03T09:41:31.130Z,65.63
2022-10-03T09:43:57.387Z,48.63
2022-10-03T09:46:23.665Z,47.58
2022-10-03T09:48:50.431Z,88.38
2022-10-03T09:51:16.694Z,116.05
2022-10-03T09:53:43.396Z,97.03
2022-10-03T09:56:09.656Z,82.40
2022-10-03T09:58:37.323Z,72.75
2022-10-03T10:01:03.639Z,58.50
2022-10-03T10:03:30.010Z,62.17
2022-10-03T10:05:56.328Z,67.80
2022-10-03T10:08:22.601Z,56.22
2022-10-03T10:10:49.076Z,73.65
2022-10-03T10:13:15.340Z,71.25
2022-10-03T10:15:41.607Z,91.32
2022-10-03T10:18:07.907Z,76.47
2022-10-03T10:20:34.225Z,58.95
2022-10-03T10:23:00.472Z,81.97
2022-10-03T10:25:26.739Z,92.53
2022-10-03T10:27:54.561Z,95.18
2022-10-03T10:30:21.018Z,57.58
2022-10-03T10:32:47.291Z,84.03
2022-10-03T10:35:15.147Z,67.90
2022-10-03T10:37:46.065Z,71.13
2022-10-03T10:40:12.679Z,81.65
2022-10-03T10:42:39.013Z,67.43
2022-10-03T10:45:05.269Z,59.67
2022-10-03T10:47:31.530Z,64.10
2022-10-03T10:49:57.876Z,80.80
2022-10-03T10:52:24.321Z,57.20
2022-10-03T10:54:51.161Z,82.38
2022-10-03T10:57:17.439Z,77.53
2022-10-03T10:59:43.704Z,65.97
2022-10-03T11:02:09.959Z,72.25
2022-10-03T11:04:36.269Z,74.65
2022-10-03T11:07:02.573Z,58.50
2022-10-03T11:09:28.851Z,58.65
2022-10-03T11:11:55.128Z,97.03
2022-10-03T11:14:21.392Z,111.18
2022-10-03T11:16:47.798Z,97.18
2022-10-03T11:19:14.303Z,74.65
2022-10-03T11:21:40.690Z,61.15
2022-10-03T11:24:06.971Z,55.30
2022-10-03T11:26:33.482Z,63.75
2022-10-03T11:28:59.733Z,55.80
2022-10-03T11:31:27.787Z,60.78
2022-10-03T11:36:21.377Z,56.58
2022-10-03T11:38:47.635Z,79.30
2022-10-03T11:41:13.892Z,77.03
2022-10-03T11:43:40.139Z,57.55
2022-10-03T11:46:06.471Z,51.30
2022-10-03T11:48:32.764Z,60.58
2022-10-03T11:50:59.145Z,64.22
2022-10-03T11:53:25.391Z,71.35
2022-10-03T11:55:51.698Z,59.90
2022-10-03T11:58:18.476Z,56.45
2022-10-03T12:00:44.887Z,57.33
2022-10-03T12:03:13.594Z,67.95
2022-10-03T12:05:39.954Z,60.65
2022-10-03T12:08:25.198Z,53.60
2022-10-03T12:10:51.474Z,52.88
2022-10-03T12:13:18.126Z,52.20
2022-10-03T12:15:44.428Z,58.42
2022-10-03T12:18:10.814Z,61.40
2022-10-03T12:20:37.060Z,62.60
2022-10-03T12:23:03.341Z,78.22
2022-10-03T12:25:30.216Z,65.22
2022-10-03T12:27:56.518Z,58.38
2022-10-03T12:30:22.797Z,68.15
2022-10-03T12:32:49.637Z,77.90
2022-10-03T12:35:15.931Z,75.57
2022-10-03T12:37:42.305Z,76.28
2022-10-03T12:40:10.608Z,81.03
2022-10-03T12:42:37.339Z,81.57
2022-10-03T12:45:03.594Z,82.30
2022-10-03T12:47:53.858Z,84.78
2022-10-03T12:50:16.090Z,76.90
2022-10-03T12:52:43.178Z,83.25
2022-10-03T12:55:09.361Z,82.23
2022-10-03T12:57:36.009Z,78.95
2022-10-03T13:00:02.263Z,68.60
2022-10-03T13:02:30.582Z,78.80
2022-10-03T13:04:56.958Z,70.90
2022-10-03T13:07:23.244Z,55.25
2022-10-03T13:09:49.735Z,57.17
2022-10-03T13:12:16.623Z,55.58
2022-10-03T13:14:43.598Z,55.42
2022-10-03T13:17:09.856Z,59.03
2022-10-03T13:19:36.112Z,55.15
2022-10-03T13:22:07.146Z,60.65
2022-10-03T13:24:33.451Z,65.03
2022-10-03T13:26:59.703Z,73.93
2022-10-03T13:29:26.035Z,64.70
2022-10-03T13:31:55.107Z,68.95
2022-10-03T13:34:21.304Z,92.25
2022-10-03T13:36:47.590Z,99.30
2022-10-03T13:39:13.848Z,109.35
2022-10-03T13:41:42.134Z,112.32
2022-10-03T13:47:13.952Z,88.38
2022-10-03T13:49:40.389Z,56.35
2022-10-03T13:52:07.408Z,58.25
2022-10-03T13:54:33.728Z,58.57
2022-10-03T13:57:00.095Z,60.00
2022-10-03T13:59:26.359Z,87.32
2022-10-03T14:01:52.828Z,106.18
2022-10-03T14:04:19.193Z,108.57
2022-10-03T14:06:46.856Z,137.73
2022-10-03T14:09:13.129Z,199.98
2022-10-03T14:11:39.676Z,236.95
2022-10-03T14:14:06.475Z,178.32
2022-10-03T14:16:32.900Z,108.03
2022-10-03T14:18:59.168Z,71.03
2022-10-03T14:21:25.584Z,63.97
2022-10-03T14:23:51.841Z,80.05
2022-10-03T14:26:18.120Z,182.57
2022-10-03T14:28:44.395Z,101.03
2022-10-03T14:31:10.736Z,60.28
2022-10-03T14:33:37.075Z,58.15
2022-10-03T14:36:03.363Z,97.95
2022-10-03T14:38:49.584Z,111.13
2022-10-03T14:41:15.847Z,131.40
2022-10-03T14:43:42.121Z,109.43
2022-10-03T14:46:08.406Z,105.88
2022-10-03T14:48:35.677Z,81.57
2022-10-03T14:51:05.178Z,66.03
2022-10-03T14:53:31.527Z,55.72
2022-10-03T14:55:57.829Z,55.55
2022-10-03T14:58:24.135Z,60.33
2022-10-03T15:00:51.096Z,56.50
2022-10-03T15:03:17.515Z,48.67
2022-10-03T15:05:43.862Z,59.25
2022-10-03T15:08:10.106Z,80.93
2022-10-03T15:10:36.791Z,126.93
2022-10-03T15:13:03.094Z,132.77
2022-10-03T15:15:29.392Z,127.88
2022-10-03T15:17:56.046Z,117.30
2022-10-03T15:20:22.394Z,121.32
2022-10-03T15:22:48.648Z,121.28
2022-10-03T15:25:15.002Z,129.63
2022-10-03T15:27:41.260Z,150.43
2022-10-03T15:30:07.534Z,123.15
2022-10-03T15:32:33.803Z,119.13
2022-10-03T15:35:00.542Z,112.78
2022-10-03T15:37:26.814Z,109.63
2022-10-03T15:39:53.468Z,95.40
2022-10-03T15:42:20.043Z,80.70
2022-10-03T15:44:50.188Z,83.25
2022-10-03T15:47:16.464Z,104.13
2022-10-03T15:49:42.751Z,102.47
2022-10-03T15:52:09.011Z,92.63
2022-10-03T15:54:38.609Z,130.35
2022-10-03T15:57:05.102Z,155.50
2022-10-03T15:59:33.483Z,162.07
2022-10-03T16:01:59.836Z,139.45
2022-10-03T16:04:26.154Z,150.15
2022-10-03T16:06:52.922Z,156.82
2022-10-03T16:09:19.569Z,165.40
2022-10-03T16:11:45.842Z,161.02
2022-10-03T16:14:12.117Z,134.93
2022-10-03T16:16:38.405Z,127.20
2022-10-03T16:19:04.713Z,112.72
2022-10-03T16:21:30.965Z,87.45
2022-10-03T16:23:57.220Z,79.65
2022-10-03T16:26:23.472Z,88.30
2022-10-03T16:28:50.540Z,80.82
2022-10-03T16:31:17.325Z,62.10
2022-10-03T16:33:43.601Z,59.00
2022-10-03T16:36:10.855Z,55.38
2022-10-03T16:38:37.103Z,48.92
2022-10-03T16:41:03.360Z,50.58
2022-10-03T16:43:29.916Z,51.38
2022-10-03T16:45:56.216Z,48.67
2022-10-03T16:48:41.147Z,52.15
2022-10-03T16:51:07.448Z,97.65
2022-10-03T16:53:33.723Z,82.82
2022-10-03T16:56:00.517Z,72.75
2022-10-03T16:58:26.917Z,69.05
2022-10-03T17:01:08.993Z,71.97
2022-10-03T17:03:39.460Z,70.75
2022-10-03T17:06:07.203Z,69.00
2022-10-03T17:08:41.646Z,69.65
2022-10-03T17:11:08.653Z,62.33
2022-10-03T17:13:35.136Z,65.35
2022-10-03T17:16:01.450Z,86.05
2022-10-03T17:18:27.756Z,104.80
2022-10-03T17:20:54.217Z,68.00
2022-10-03T17:23:20.494Z,54.97
2022-10-03T17:25:46.766Z,54.40
2022-10-03T17:28:13.054Z,55.08
2022-10-03T17:30:39.563Z,58.80
2022-10-03T17:33:05.812Z,71.53
2022-10-03T17:35:32.058Z,84.63
2022-10-03T17:37:58.336Z,86.65
2022-10-03T17:40:24.587Z,80.53
2022-10-03T17:42:50.849Z,74.90
2022-10-03T17:45:17.140Z,81.45
2022-10-03T17:47:43.441Z,88.90
2022-10-03T17:50:10.159Z,93.88
2022-10-03T17:52:37.231Z,79.65
2022-10-03T17:55:03.482Z,79.13
2022-10-03T17:57:29.844Z,71.30
2022-10-03T17:59:56.156Z,67.22
2022-10-03T18:02:22.466Z,70.25
2022-10-03T18:04:48.868Z,72.53
2022-10-03T18:07:15.138Z,72.05
2022-10-03T18:09:41.500Z,64.03
2022-10-03T18:12:08.002Z,59.15
2022-10-03T18:14:34.256Z,64.00
2022-10-03T18:17:00.515Z,59.72
2022-10-03T18:19:26.983Z,66.53
2022-10-03T18:21:54.350Z,75.53
2022-10-03T18:24:20.604Z,75.05
2022-10-03T18:26:46.998Z,70.78
2022-10-03T18:29:13.328Z,58.47
2022-10-03T18:31:41.000Z,55.05
2022-10-03T18:34:12.870Z,61.22
2022-10-03T18:36:40.091Z,86.38
2022-10-03T18:39:06.404Z,51.55
2022-10-03T18:41:32.671Z,56.13
2022-10-03T18:43:59.782Z,70.63
2022-10-03T18:46:30.253Z,96.60
2022-10-03T18:49:24.076Z,53.65
2022-10-03T18:51:43.229Z,97.07
2022-10-03T18:54:09.503Z,53.50
2022-10-03T18:56:35.795Z,69.65
2022-10-03T18:59:02.342Z,85.15
2022-10-03T19:01:30.550Z,62.10
2022-10-03T19:03:56.971Z,56.38
2022-10-03T19:06:23.229Z,77.75
2022-10-03T19:08:49.499Z,90.10
2022-10-03T19:11:15.757Z,93.95
2022-10-03T19:13:42.046Z,79.07
2022-10-03T19:16:08.339Z,65.30
2022-10-03T19:18:35.462Z,58.00
2022-10-03T19:21:01.661Z,49.50
2022-10-03T19:23:28.144Z,46.88
2022-10-03T19:25:56.523Z,47.95
2022-10-03T19:28:22.938Z,50.42
2022-10-03T19:30:49.302Z,46.53
2022-10-03T19:33:15.621Z,46.83
2022-10-03T19:35:42.988Z,55.67
2022-10-03T19:38:09.249Z,63.95
2022-10-03T19:40:35.582Z,62.22
2022-10-03T19:43:02.243Z,54.35
2022-10-03T19:45:28.543Z,66.97
2022-10-03T19:47:56.401Z,73.85
2022-10-03T19:50:22.655Z,67.15
2022-10-03T19:52:48.913Z,71.25
2022-10-03T19:55:15.740Z,76.80
2022-10-03T19:57:42.027Z,79.93
2022-10-03T20:00:08.771Z,103.15
2022-10-03T20:02:35.135Z,101.93
2022-10-03T20:05:01.401Z,95.80
2022-10-03T20:07:27.708Z,74.93
2022-10-03T20:09:53.967Z,58.05
2022-10-03T20:12:20.243Z,48.17
2022-10-03T20:14:47.100Z,50.97
2022-10-03T20:17:13.610Z,63.45
2022-10-03T20:19:40.736Z,74.68
2022-10-03T20:22:06.952Z,75.80
2022-10-03T20:24:33.259Z,71.88
2022-10-03T20:26:59.532Z,77.43
2022-10-03T20:29:25.791Z,89.00
2022-10-03T20:31:52.142Z,68.35
2022-10-03T20:34:18.446Z,89.93
2022-10-03T20:36:44.763Z,66.72
2022-10-03T20:39:11.093Z,64.30
2022-10-03T20:41:37.780Z,62.13
2022-10-03T20:44:04.134Z,60.42
2022-10-03T20:46:30.457Z,60.95
2022-10-03T20:48:58.988Z,58.72
2022-10-03T20:51:25.341Z,57.28
2022-10-03T20:53:53.174Z,61.25
2022-10-03T20:56:19.443Z,55.80
2022-10-03T20:58:50.237Z,63.17
2022-10-03T21:01:17.190Z,76.97
2022-10-03T21:03:43.544Z,69.68
2022-10-03T21:06:14.258Z,70.38
2022-10-03T21:08:41.230Z,105.22
2022-10-03T21:11:07.494Z,99.68
2022-10-03T21:13:33.771Z,103.57
2022-10-03T21:16:00.093Z,86.13
2022-10-03T21:18:26.434Z,76.43
2022-10-03T21:20:52.682Z,76.13
2022-10-03T21:23:18.992Z,94.20
2022-10-03T21:25:45.294Z,72.50
2022-10-03T21:28:11.592Z,85.30
2022-10-03T21:30:37.895Z,101.88
2022-10-03T21:33:04.163Z,109.30
2022-10-03T21:35:30.482Z,93.07
2022-10-03T21:37:56.753Z,85.28
2022-10-03T21:40:23.097Z,90.05
2022-10-03T21:42:53.379Z,102.43
2022-10-03T21:45:19.637Z,94.68
2022-10-03T21:47:45.910Z,98.25
2022-10-03T21:50:12.173Z,75.18
2022-10-03T21:52:38.430Z,61.05
2022-10-03T21:55:04.707Z,71.40
2022-10-03T21:57:31.000Z,64.88
2022-10-03T21:59:57.259Z,62.03
2022-10-03T22:02:23.543Z,57.45
2022-10-03T22:04:49.828Z,52.20
2022-10-03T22:07:16.118Z,55.22
2022-10-03T22:09:42.392Z,59.35
2022-10-03T22:12:08.630Z,58.08
2022-10-03T22:14:34.902Z,51.42
2022-10-03T22:17:01.176Z,50.70
2022-10-03T22:19:27.446Z,52.25
2022-10-03T22:21:53.705Z,52.35
2022-10-03T22:24:19.978Z,51.05
2022-10-03T22:26:46.231Z,51.17
2022-10-03T22:29:12.492Z,54.60
2022-10-03T22:31:39.021Z,57.85
2022-10-03T22:34:05.560Z,56.50
2022-10-03T22:36:32.011Z,55.10
2022-10-03T22:38:58.267Z,48.95
2022-10-03T22:41:24.753Z,48.63
2022-10-03T22:43:51.085Z,57.15
2022-10-03T22:46:18.064Z,68.68
2022-10-03T22:48:44.346Z,104.27
2022-10-03T22:51:10.608Z,100.35
2022-10-03T22:53:36.862Z,109.28
2022-10-03T22:56:03.283Z,105.85
2022-10-03T22:58:29.562Z,108.93
2022-10-03T23:00:56.086Z,108.00
2022-10-03T23:03:22.461Z,106.03
2022-10-03T23:05:48.766Z,100.63
2022-10-03T23:08:15.012Z,103.72
2022-10-03T23:10:41.466Z,76.68
2022-10-03T23:13:07.767Z,77.88
2022-10-03T23:15:34.056Z,68.00
2022-10-03T23:18:00.398Z,68.95
2022-10-03T23:20:26.656Z,59.17
2022-10-03T23:22:53.299Z,60.90
2022-10-03T23:25:19.553Z,71.72
2022-10-03T23:27:45.881Z,66.80
2022-10-03T23:30:12.141Z,65.38
2022-10-03T23:32:38.409Z,65.68
2022-10-03T23:35:04.726Z,77.07
2022-10-03T23:37:31.028Z,97.55
2022-10-03T23:39:57.281Z,119.70
2022-10-03T23:42:23.864Z,88.90
2022-10-03T23:44:50.501Z,63.53
2022-10-03T23:47:16.760Z,59.47
2022-10-03T23:49:43.014Z,55.15
2022-10-03T23:52:09.301Z,59.58
2022-10-03T23:54:35.554Z,60.00
2022-10-03T23:57:01.814Z,64.00
2022-10-03T23:59:28.062Z,125.93
